Lules, Argentina
Current Conditions -  °F | °C
As of 1:00 AM on Tuesday 21 Oct 2014 (Local Time) from SANT Reporting Station
Clear Clear  
Wind Chill: 63°   Ceiling: Unl
Heat Index: 63°   Visibility: 4mi
Dew Point: 59°   Wind: 5mph
Humidity: 88%   Direction: 320°NW
Pressure: 30.09"   Gusts: NA
Location:  26.93°S, 65.35°W
Report Text: SANT 210400Z 32004KT 6000 NSC 17/15 Q1019
Loading
Personal Weather Stations






























Interactive Weather Map
Tropical Storm Tracking
New forecast layout! Learn more

10-Day Weather Forecast

Advertisements
Track Severe Weather on mobile